Time,TemperatureF,DewpointF,PressureIn,WindDirection,WindDirectionDegrees,WindSpeedMPH,WindSpeedGustMPH,Humidity,HourlyPrecipIn,Conditions,Clouds,dailyrainin,SoftwareType,DateUTC
2013-01-27 00:41:00,34.0,32.0,30.05,South,180,7.0,-999.0,93,-99.99,,,-99.99,,2013-01-27 08:41:00,
2013-01-27 00:52:00,34.0,32.0,30.05,South,180,7.0,-999.0,93,-99.99,,,-99.99,,2013-01-27 08:52:00,
2013-01-27 01:41:00,34.0,32.0,30.05,South,190,3.0,-999.0,93,-99.99,,,-99.99,,2013-01-27 09:41:00,
2013-01-27 01:51:00,34.0,32.0,30.05,South,190,3.0,-999.0,93,-99.99,,,-99.99,,2013-01-27 09:51:00,
2013-01-27 02:21:00,32.0,30.0,30.05,SSW,200,5.0,-999.0,92,-99.99,,,-99.99,,2013-01-27 10:21:00,
2013-01-27 02:31:00,32.0,30.0,30.05,SSW,200,5.0,-999.0,92,-99.99,,,-99.99,,2013-01-27 10:31:00,
2013-01-27 02:41:00,32.0,32.0,30.05,SSW,210,3.0,-999.0,100,-99.99,,,-99.99,,2013-01-27 10:41:00,
2013-01-27 02:51:00,32.0,32.0,30.05,SSW,210,3.0,-999.0,100,-99.99,,,-99.99,,2013-01-27 10:51:00,
2013-01-27 03:11:00,32.0,30.0,30.06,SSW,210,7.0,-999.0,92,-99.99,,,-99.99,,2013-01-27 11:11:00,
2013-01-27 03:21:00,32.0,30.0,30.06,SSW,210,7.0,-999.0,92,-99.99,,,-99.99,,2013-01-27 11:21:00,
2013-01-27 03:32:00,32.0,30.0,30.06,SSW,210,7.0,-999.0,92,-99.99,,,-99.99,,2013-01-27 11:32:00,
2013-01-27 03:42:00,34.0,34.0,30.05,WSW,240,3.0,-999.0,100,-99.99,,,-99.99,,2013-01-27 11:42:00,
2013-01-27 03:52:00,34.0,34.0,30.05,WSW,240,3.0,-999.0,100,-99.99,,,-99.99,,2013-01-27 11:52:00,
2013-01-27 04:11:00,30.0,30.0,30.05,North,0,0.0,-999.0,100,-99.99,,,-99.99,,2013-01-27 12:11:00,
2013-01-27 04:21:00,30.0,30.0,30.05,North,0,0.0,-999.0,100,-99.99,,,-99.99,,2013-01-27 12:21:00,
2013-01-27 04:32:00,30.0,30.0,30.05,North,0,0.0,-999.0,100,-99.99,,,-99.99,,2013-01-27 12:32:00,
2013-01-27 04:42:00,32.0,30.0,30.05,SW,220,3.0,-999.0,92,-99.99,,,-99.99,,2013-01-27 12:42:00,
2013-01-27 04:52:00,32.0,30.0,30.05,SW,220,3.0,-999.0,92,-99.99,,,-99.99,,2013-01-27 12:52:00,
2013-01-27 05:02:00,32.0,30.0,30.05,SW,220,3.0,-999.0,92,-99.99,,,-99.99,,2013-01-27 13:02:00,
2013-01-27 05:11:00,32.0,32.0,30.05,WSW,240,5.0,-999.0,100,-99.99,,,-99.99,,2013-01-27 13:11:00,
2013-01-27 05:22:00,32.0,32.0,30.05,WSW,240,5.0,-999.0,100,-99.99,,,-99.99,,2013-01-27 13:22:00,
2013-01-27 05:32:00,32.0,32.0,30.05,WSW,240,5.0,-999.0,100,-99.99,,,-99.99,,2013-01-27 13:32:00,
2013-01-27 05:42:00,32.0,32.0,30.05,South,170,5.0,-999.0,100,-99.99,,,-99.99,,2013-01-27 13:42:00,
2013-01-27 05:52:00,32.0,32.0,30.05,South,170,5.0,-999.0,100,-99.99,,,-99.99,,2013-01-27 13:52:00,
2013-01-27 06:11:00,32.0,30.0,30.05,North,0,0.0,-999.0,92,-99.99,,,-99.99,,2013-01-27 14:11:00,
2013-01-27 06:22:00,32.0,30.0,30.05,North,0,0.0,-999.0,92,-99.99,,,-99.99,,2013-01-27 14:22:00,
2013-01-27 06:32:00,32.0,30.0,30.05,North,0,0.0,-999.0,92,-99.99,,,-99.99,,2013-01-27 14:32:00,
2013-01-27 06:42:00,32.0,32.0,30.06,North,0,0.0,-999.0,100,-99.99,,,-99.99,,2013-01-27 14:42:00,
2013-01-27 06:52:00,32.0,32.0,30.06,North,0,0.0,-999.0,100,-99.99,,,-99.99,,2013-01-27 14:52:00,
2013-01-27 07:11:00,37.0,34.0,30.06,WNW,290,6.0,-999.0,86,-99.99,,,-99.99,,2013-01-27 15:11:00,
2013-01-27 07:22:00,37.0,34.0,30.06,WNW,290,6.0,-999.0,86,-99.99,,,-99.99,,2013-01-27 15:22:00,
2013-01-27 07:32:00,37.0,34.0,30.06,WNW,290,6.0,-999.0,86,-99.99,,,-99.99,,2013-01-27 15:32:00,
2013-01-27 07:42:00,37.0,34.0,30.06,North,0,0.0,-999.0,86,-99.99,,,-99.99,,2013-01-27 15:42:00,
2013-01-27 07:52:00,37.0,34.0,30.06,North,0,0.0,-999.0,86,-99.99,,,-99.99,,2013-01-27 15:52:00,
2013-01-27 08:11:00,32.0,30.0,30.07,SW,220,3.0,-999.0,92,-99.99,,,-99.99,,2013-01-27 16:11:00,
2013-01-27 08:21:00,32.0,30.0,30.07,SW,220,3.0,-999.0,92,-99.99,,,-99.99,,2013-01-27 16:21:00,
2013-01-27 08:32:00,32.0,30.0,30.07,SW,220,3.0,-999.0,92,-99.99,,,-99.99,,2013-01-27 16:32:00,
2013-01-27 08:42:00,37.0,34.0,30.07,WNW,300,10.0,-999.0,86,-99.99,,,-99.99,,2013-01-27 16:42:00,
2013-01-27 08:52:00,37.0,34.0,30.07,WNW,300,10.0,-999.0,86,-99.99,,,-99.99,,2013-01-27 16:52:00,
2013-01-27 09:12:00,39.0,36.0,30.07,WNW,300,9.0,-999.0,86,-99.99,,,-99.99,,2013-01-27 17:12:00,
2013-01-27 09:21:00,39.0,36.0,30.07,WNW,300,9.0,-999.0,86,-99.99,,,-99.99,,2013-01-27 17:21:00,
2013-01-27 09:32:00,39.0,36.0,30.07,WNW,300,9.0,-999.0,86,-99.99,,,-99.99,,2013-01-27 17:32:00,
2013-01-27 09:42:00,41.0,34.0,30.09,WNW,300,7.0,-999.0,75,-99.99,,,-99.99,,2013-01-27 17:42:00,
2013-01-27 09:52:00,41.0,34.0,30.09,WNW,300,7.0,-999.0,75,-99.99,,,-99.99,,2013-01-27 17:52:00,
2013-01-27 10:02:00,41.0,34.0,30.09,WNW,300,7.0,-999.0,75,-99.99,,,-99.99,,2013-01-27 18:02:00,
2013-01-27 10:11:00,41.0,36.0,30.09,WNW,290,10.0,-999.0,80,-99.99,,,-99.99,,2013-01-27 18:11:00,
2013-01-27 10:22:00,41.0,36.0,30.09,WNW,290,10.0,-999.0,80,-99.99,,,-99.99,,2013-01-27 18:22:00,
2013-01-27 10:32:00,41.0,36.0,30.09,WNW,290,10.0,-999.0,80,-99.99,,,-99.99,,2013-01-27 18:32:00,
2013-01-27 10:42:00,41.0,36.0,30.09,NW,310,12.0,17.0,80,-99.99,,,-99.99,,2013-01-27 18:42:00,
2013-01-27 10:52:00,41.0,36.0,30.09,NW,310,12.0,17.0,80,-99.99,,,-99.99,,2013-01-27 18:52:00,
2013-01-27 11:11:00,41.0,36.0,30.10,WNW,290,8.0,21.0,80,-99.99,,,-99.99,,2013-01-27 19:11:00,
2013-01-27 11:22:00,41.0,36.0,30.10,WNW,290,8.0,21.0,80,-99.99,,,-99.99,,2013-01-27 19:22:00,
2013-01-27 11:32:00,41.0,36.0,30.10,WNW,290,8.0,21.0,80,-99.99,,,-99.99,,2013-01-27 19:32:00,
2013-01-27 11:41:00,41.0,36.0,30.10,West,280,7.0,-999.0,80,-99.99,,,-99.99,,2013-01-27 19:41:00,
2013-01-27 11:51:00,41.0,36.0,30.10,West,280,7.0,-999.0,80,-99.99,,,-99.99,,2013-01-27 19:51:00,
2013-01-27 12:11:00,41.0,36.0,30.09,West,270,6.0,-999.0,80,-99.99,,,-99.99,,2013-01-27 20:11:00,
2013-01-27 12:22:00,41.0,36.0,30.09,West,270,6.0,-999.0,80,-99.99,,,-99.99,,2013-01-27 20:22:00,
2013-01-27 12:32:00,41.0,36.0,30.09,West,270,6.0,-999.0,80,-99.99,,,-99.99,,2013-01-27 20:32:00,
2013-01-27 12:42:00,41.0,36.0,30.09,West,260,5.0,-999.0,80,-99.99,,,-99.99,,2013-01-27 20:42:00,
2013-01-27 12:52:00,41.0,36.0,30.09,West,260,5.0,-999.0,80,-99.99,,,-99.99,,2013-01-27 20:52:00,
2013-01-27 13:12:00,41.0,36.0,30.07,WNW,290,9.0,16.0,80,-99.99,,,-99.99,,2013-01-27 21:12:00,
2013-01-27 13:22:00,41.0,36.0,30.07,WNW,290,9.0,16.0,80,-99.99,,,-99.99,,2013-01-27 21:22:00,
2013-01-27 13:32:00,41.0,36.0,30.07,WNW,290,9.0,16.0,80,-99.99,,,-99.99,,2013-01-27 21:32:00,
2013-01-27 13:42:00,41.0,36.0,30.06,WNW,300,13.0,18.0,80,-99.99,,,-99.99,,2013-01-27 21:42:00,
2013-01-27 13:52:00,41.0,36.0,30.06,WNW,300,13.0,18.0,80,-99.99,,,-99.99,,2013-01-27 21:52:00,
2013-01-27 14:11:00,41.0,36.0,30.05,West,280,8.0,20.0,80,-99.99,,,-99.99,,2013-01-27 22:11:00,
2013-01-27 14:21:00,41.0,36.0,30.05,West,280,8.0,20.0,80,-99.99,,,-99.99,,2013-01-27 22:21:00,
2013-01-27 14:32:00,41.0,36.0,30.05,West,280,8.0,20.0,80,-99.99,,,-99.99,,2013-01-27 22:32:00,
2013-01-27 14:42:00,41.0,36.0,30.04,WNW,290,9.0,18.0,80,-99.99,,,-99.99,,2013-01-27 22:42:00,
2013-01-27 14:51:00,41.0,36.0,30.04,WNW,290,9.0,18.0,80,-99.99,,,-99.99,,2013-01-27 22:51:00,
2013-01-27 15:11:00,41.0,36.0,30.04,WNW,300,8.0,-999.0,80,-99.99,,,-99.99,,2013-01-27 23:11:00,
2013-01-27 15:21:00,41.0,36.0,30.04,WNW,300,8.0,-999.0,80,-99.99,,,-99.99,,2013-01-27 23:21:00,
2013-01-27 15:32:00,41.0,36.0,30.04,WNW,300,8.0,-999.0,80,-99.99,,,-99.99,,2013-01-27 23:32:00,
2013-01-27 15:41:00,41.0,36.0,30.04,WNW,300,8.0,-999.0,80,-99.99,,,-99.99,,2013-01-27 23:41:00,
2013-01-27 15:52:00,41.0,36.0,30.04,WNW,300,8.0,-999.0,80,-99.99,,,-99.99,,2013-01-27 23:52:00,
2013-01-27 16:11:00,41.0,36.0,30.04,WNW,290,9.0,-999.0,80,-99.99,,,-99.99,,2013-01-28 00:11:00,
2013-01-27 16:21:00,41.0,36.0,30.04,WNW,290,9.0,-999.0,80,-99.99,,,-99.99,,2013-01-28 00:21:00,
2013-01-27 16:32:00,41.0,36.0,30.04,WNW,290,9.0,-999.0,80,-99.99,,,-99.99,,2013-01-28 00:32:00,
2013-01-27 16:42:00,39.0,34.0,30.04,WNW,290,9.0,-999.0,80,-99.99,,,-99.99,,2013-01-28 00:42:00,
2013-01-27 16:51:00,39.0,34.0,30.04,WNW,290,9.0,-999.0,80,-99.99,,,-99.99,,2013-01-28 00:51:00,
2013-01-27 17:11:00,39.0,36.0,30.04,WNW,300,7.0,-999.0,86,-99.99,,,-99.99,,2013-01-28 01:11:00,
2013-01-27 17:21:00,39.0,36.0,30.04,WNW,300,7.0,-999.0,86,-99.99,,,-99.99,,2013-01-28 01:21:00,
2013-01-27 17:32:00,39.0,36.0,30.04,WNW,300,7.0,-999.0,86,-99.99,,,-99.99,,2013-01-28 01:32:00,
2013-01-27 17:42:00,39.0,36.0,30.03,WNW,290,5.0,-999.0,86,-99.99,,,-99.99,,2013-01-28 01:42:00,
2013-01-27 17:51:00,39.0,36.0,30.03,WNW,290,5.0,-999.0,86,-99.99,,,-99.99,,2013-01-28 01:51:00,
2013-01-27 18:11:00,39.0,36.0,30.03,WNW,300,3.0,-999.0,86,-99.99,,,-99.99,,2013-01-28 02:11:00,
2013-01-27 18:21:00,39.0,36.0,30.03,WNW,300,3.0,-999.0,86,-99.99,,,-99.99,,2013-01-28 02:21:00,
2013-01-27 18:32:00,39.0,36.0,30.03,WNW,300,3.0,-999.0,86,-99.99,,,-99.99,,2013-01-28 02:32:00,
2013-01-27 18:42:00,37.0,36.0,30.03,WNW,290,5.0,-999.0,93,-99.99,,,-99.99,,2013-01-28 02:42:00,
2013-01-27 18:52:00,37.0,36.0,30.03,WNW,290,5.0,-999.0,93,-99.99,,,-99.99,,2013-01-28 02:52:00,
2013-01-27 19:11:00,37.0,36.0,30.02,North,0,0.0,-999.0,93,-99.99,,,-99.99,,2013-01-28 03:11:00,
2013-01-27 19:21:00,37.0,36.0,30.02,North,0,0.0,-999.0,93,-99.99,,,-99.99,,2013-01-28 03:21:00,
2013-01-27 19:32:00,37.0,36.0,30.02,North,0,0.0,-999.0,93,-99.99,,,-99.99,,2013-01-28 03:32:00,
2013-01-27 19:41:00,37.0,36.0,30.02,North,0,0.0,-999.0,93,-99.99,,,-99.99,,2013-01-28 03:41:00,
2013-01-27 19:52:00,37.0,36.0,30.02,North,0,0.0,-999.0,93,-99.99,,,-99.99,,2013-01-28 03:52:00,
2013-01-27 20:11:00,37.0,36.0,30.02,North,0,0.0,-999.0,93,-99.99,,,-99.99,,2013-01-28 04:11:00,
2013-01-27 20:21:00,37.0,36.0,30.02,North,0,0.0,-999.0,93,-99.99,,,-99.99,,2013-01-28 04:21:00,
2013-01-27 20:31:00,37.0,36.0,30.02,North,0,0.0,-999.0,93,-99.99,,,-99.99,,2013-01-28 04:31:00,
2013-01-27 20:41:00,36.0,34.0,30.02,North,0,0.0,-999.0,93,-99.99,,,-99.99,,2013-01-28 04:41:00,
2013-01-27 20:52:00,36.0,34.0,30.02,North,0,0.0,-999.0,93,-99.99,,,-99.99,,2013-01-28 04:52:00,
2013-01-27 21:21:00,36.0,34.0,30.02,North,0,0.0,-999.0,93,-99.99,,,-99.99,,2013-01-28 05:21:00,
2013-01-27 21:31:00,36.0,34.0,30.02,North,0,0.0,-999.0,93,-99.99,,,-99.99,,2013-01-28 05:31:00,
2013-01-27 21:41:00,34.0,34.0,30.02,North,0,0.0,-999.0,100,-99.99,,,-99.99,,2013-01-28 05:41:00,
2013-01-27 21:52:00,34.0,34.0,30.02,North,0,0.0,-999.0,100,-99.99,,,-99.99,,2013-01-28 05:52:00,
2013-01-27 22:11:00,36.0,34.0,30.02,North,0,0.0,-999.0,93,-99.99,,,-99.99,,2013-01-28 06:11:00,
2013-01-27 22:21:00,36.0,34.0,30.02,North,0,0.0,-999.0,93,-99.99,,,-99.99,,2013-01-28 06:21:00,
2013-01-27 22:32:00,36.0,34.0,30.02,North,0,0.0,-999.0,93,-99.99,,,-99.99,,2013-01-28 06:32:00,
2013-01-27 22:42:00,36.0,34.0,30.02,SSW,200,3.0,-999.0,93,-99.99,,,-99.99,,2013-01-28 06:42:00,
2013-01-27 22:52:00,36.0,34.0,30.02,SSW,200,3.0,-999.0,93,-99.99,,,-99.99,,2013-01-28 06:52:00,
2013-01-27 23:11:00,36.0,34.0,30.02,North,0,0.0,-999.0,93,-99.99,,,-99.99,,2013-01-28 07:11:00,
2013-01-27 23:21:00,36.0,34.0,30.02,North,0,0.0,-999.0,93,-99.99,,,-99.99,,2013-01-28 07:21:00,
2013-01-27 23:31:00,36.0,34.0,30.02,North,0,0.0,-999.0,93,-99.99,,,-99.99,,2013-01-28 07:31:00,
2013-01-27 23:41:00,34.0,34.0,30.02,South,190,3.0,-999.0,100,-99.99,,,-99.99,,2013-01-28 07:41:00,
2013-01-27 23:51:00,34.0,34.0,30.02,South,190,3.0,-999.0,100,-99.99,,,-99.99,,2013-01-28 07:51:00,